sensor_id;sensor_type;location;lat;lon;timestamp;pressure;altitude;pressure_sealevel;temperature;humidity
51496;BME280;37572;52.094;4.870;2022-10-22T00:00:33;100775.03;;;15.09;100.00
51496;BME280;37572;52.094;4.870;2022-10-22T00:02:58;100768.88;;;15.14;100.00
51496;BME280;37572;52.094;4.870;2022-10-22T00:05:23;100779.66;;;15.09;100.00
51496;BME280;37572;52.094;4.870;2022-10-22T00:07:48;100774.47;;;15.07;100.00
51496;BME280;37572;52.094;4.870;2022-10-22T00:10:14;100779.03;;;15.07;100.00
51496;BME280;37572;52.094;4.870;2022-10-22T00:12:41;100775.28;;;15.08;100.00
51496;BME280;37572;52.094;4.870;2022-10-22T00:15:07;100769.50;;;15.16;100.00
51496;BME280;37572;52.094;4.870;2022-10-22T00:17:32;100775.50;;;15.18;100.00
51496;BME280;37572;52.094;4.870;2022-10-22T00:19:58;100776.44;;;15.12;100.00
51496;BME280;37572;52.094;4.870;2022-10-22T00:22:23;100774.56;;;15.12;100.00
51496;BME280;37572;52.094;4.870;2022-10-22T00:24:48;100776.94;;;15.09;100.00
51496;BME280;37572;52.094;4.870;2022-10-22T00:27:14;100775.75;;;15.05;100.00
51496;BME280;37572;52.094;4.870;2022-10-22T00:29:39;100776.47;;;15.00;100.00
51496;BME280;37572;52.094;4.870;2022-10-22T00:32:05;100776.25;;;15.02;100.00
51496;BME280;37572;52.094;4.870;2022-10-22T00:34:31;100772.94;;;15.00;100.00
51496;BME280;37572;52.094;4.870;2022-10-22T00:36:56;100774.72;;;14.94;100.00
51496;BME280;37572;52.094;4.870;2022-10-22T00:39:23;100781.44;;;14.91;100.00
51496;BME280;37572;52.094;4.870;2022-10-22T00:41:51;100782.84;;;14.94;100.00
51496;BME280;37572;52.094;4.870;2022-10-22T00:47:21;100775.44;;;14.89;100.00
51496;BME280;37572;52.094;4.870;2022-10-22T00:49:48;100781.19;;;14.93;100.00
51496;BME280;37572;52.094;4.870;2022-10-22T00:52:14;100782.97;;;14.99;100.00
51496;BME280;37572;52.094;4.870;2022-10-22T00:54:40;100790.50;;;14.97;100.00
51496;BME280;37572;52.094;4.870;2022-10-22T00:57:06;100791.22;;;15.04;100.00
51496;BME280;37572;52.094;4.870;2022-10-22T00:59:31;100791.78;;;15.06;100.00
51496;BME280;37572;52.094;4.870;2022-10-22T01:01:57;100798.38;;;15.10;100.00
51496;BME280;37572;52.094;4.870;2022-10-22T01:04:22;100795.69;;;15.10;100.00
51496;BME280;37572;52.094;4.870;2022-10-22T01:06:48;100798.16;;;15.12;100.00
51496;BME280;37572;52.094;4.870;2022-10-22T01:17:40;100801.69;;;15.12;100.00
51496;BME280;37572;52.094;4.870;2022-10-22T01:20:20;100792.25;;;15.15;100.00
51496;BME280;37572;52.094;4.870;2022-10-22T01:25:48;100793.41;;;15.19;100.00
51496;BME280;37572;52.094;4.870;2022-10-22T01:31:02;100791.06;;;15.11;100.00
51496;BME280;37572;52.094;4.870;2022-10-22T01:33:29;100792.00;;;15.16;100.00
51496;BME280;37572;52.094;4.870;2022-10-22T01:35:56;100787.31;;;15.12;100.00
51496;BME280;37572;52.094;4.870;2022-10-22T01:38:22;100794.25;;;15.08;100.00
51496;BME280;37572;52.094;4.870;2022-10-22T01:40:49;100797.22;;;15.06;100.00
51496;BME280;37572;52.094;4.870;2022-10-22T01:43:15;100795.69;;;15.10;100.00
51496;BME280;37572;52.094;4.870;2022-10-22T01:45:46;100782.94;;;15.11;100.00
51496;BME280;37572;52.094;4.870;2022-10-22T01:48:44;100791.88;;;15.11;100.00
51496;BME280;37572;52.094;4.870;2022-10-22T01:54:05;100788.50;;;15.04;100.00
51496;BME280;37572;52.094;4.870;2022-10-22T01:59:58;100789.78;;;15.02;100.00
51496;BME280;37572;52.094;4.870;2022-10-22T02:07:29;100784.31;;;14.85;100.00
51496;BME280;37572;52.094;4.870;2022-10-22T02:09:56;100777.22;;;14.84;100.00
51496;BME280;37572;52.094;4.870;2022-10-22T02:12:25;100772.75;;;14.77;100.00
51496;BME280;37572;52.094;4.870;2022-10-22T02:14:53;100775.47;;;14.77;100.00
51496;BME280;37572;52.094;4.870;2022-10-22T02:17:20;100769.47;;;14.75;100.00
51496;BME280;37572;52.094;4.870;2022-10-22T02:22:14;100779.38;;;14.70;100.00
51496;BME280;37572;52.094;4.870;2022-10-22T02:24:39;100789.41;;;14.69;100.00
51496;BME280;37572;52.094;4.870;2022-10-22T02:27:11;100790.22;;;14.70;100.00
51496;BME280;37572;52.094;4.870;2022-10-22T02:29:47;100787.25;;;14.71;100.00
51496;BME280;37572;52.094;4.870;2022-10-22T02:32:19;100786.69;;;14.69;100.00
51496;BME280;37572;52.094;4.870;2022-10-22T02:34:46;100785.03;;;14.68;100.00
51496;BME280;37572;52.094;4.870;2022-10-22T02:37:13;100790.34;;;14.63;100.00
51496;BME280;37572;52.094;4.870;2022-10-22T02:39:39;100790.44;;;14.68;100.00
51496;BME280;37572;52.094;4.870;2022-10-22T02:42:05;100790.09;;;14.65;100.00
51496;BME280;37572;52.094;4.870;2022-10-22T02:44:30;100780.19;;;14.58;100.00
51496;BME280;37572;52.094;4.870;2022-10-22T02:46:56;100786.81;;;14.62;100.00
51496;BME280;37572;52.094;4.870;2022-10-22T02:49:22;100784.09;;;14.62;100.00
51496;BME280;37572;52.094;4.870;2022-10-22T02:51:47;100778.94;;;14.61;100.00
51496;BME280;37572;52.094;4.870;2022-10-22T02:54:12;100789.28;;;14.64;100.00
51496;BME280;37572;52.094;4.870;2022-10-22T02:56:37;100790.91;;;14.65;100.00
51496;BME280;37572;52.094;4.870;2022-10-22T02:59:03;100783.25;;;14.62;100.00
51496;BME280;37572;52.094;4.870;2022-10-22T03:01:28;100790.22;;;14.70;100.00
51496;BME280;37572;52.094;4.870;2022-10-22T03:03:53;100792.56;;;14.78;100.00
51496;BME280;37572;52.094;4.870;2022-10-22T03:06:18;100790.09;;;14.76;100.00
51496;BME280;37572;52.094;4.870;2022-10-22T03:08:44;100784.44;;;14.66;100.00
51496;BME280;37572;52.094;4.870;2022-10-22T03:11:09;100788.34;;;14.70;100.00
51496;BME280;37572;52.094;4.870;2022-10-22T03:13:35;100789.41;;;14.69;100.00
51496;BME280;37572;52.094;4.870;2022-10-22T03:16:00;100791.75;;;14.66;100.00
51496;BME280;37572;52.094;4.870;2022-10-22T03:18:26;100790.91;;;14.65;100.00
51496;BME280;37572;52.094;4.870;2022-10-22T03:21:02;100794.47;;;14.66;100.00
51496;BME280;37572;52.094;4.870;2022-10-22T03:23:29;100792.81;;;14.65;100.00
51496;BME280;37572;52.094;4.870;2022-10-22T03:25:55;100798.25;;;14.65;100.00
51496;BME280;37572;52.094;4.870;2022-10-22T03:28:21;100790.22;;;14.58;100.00
51496;BME280;37572;52.094;4.870;2022-10-22T03:30:46;100796.91;;;14.55;100.00
51496;BME280;37572;52.094;4.870;2022-10-22T03:33:11;100797.63;;;14.51;100.00
51496;BME280;37572;52.094;4.870;2022-10-22T03:35:42;100797.38;;;14.52;100.00
51496;BME280;37572;52.094;4.870;2022-10-22T03:38:08;100801.53;;;14.55;100.00
51496;BME280;37572;52.094;4.870;2022-10-22T03:40:34;100804.72;;;14.52;100.00
51496;BME280;37572;52.094;4.870;2022-10-22T03:42:59;100809.19;;;14.46;100.00
51496;BME280;37572;52.094;4.870;2022-10-22T03:45:25;100799.53;;;14.50;100.00
51496;BME280;37572;52.094;4.870;2022-10-22T03:47:50;100803.38;;;14.54;100.00
51496;BME280;37572;52.094;4.870;2022-10-22T03:50:16;100809.41;;;14.56;100.00
51496;BME280;37572;52.094;4.870;2022-10-22T03:52:42;100804.72;;;14.52;100.00
51496;BME280;37572;52.094;4.870;2022-10-22T03:55:08;100810.94;;;14.52;100.00
51496;BME280;37572;52.094;4.870;2022-10-22T03:57:33;100804.81;;;14.57;100.00
51496;BME280;37572;52.094;4.870;2022-10-22T03:59:58;100808.34;;;14.57;100.00
51496;BME280;37572;52.094;4.870;2022-10-22T04:02:24;100805.38;;;14.59;100.00
51496;BME280;37572;52.094;4.870;2022-10-22T04:04:49;100817.78;;;14.67;100.00
51496;BME280;37572;52.094;4.870;2022-10-22T04:07:14;100822.72;;;14.70;100.00
51496;BME280;37572;52.094;4.870;2022-10-22T04:09:40;100820.25;;;14.68;100.00
51496;BME280;37572;52.094;4.870;2022-10-22T04:12:05;100827.91;;;14.59;100.00
51496;BME280;37572;52.094;4.870;2022-10-22T04:14:32;100825.69;;;14.68;100.00
51496;BME280;37572;52.094;4.870;2022-10-22T04:16:57;100831.72;;;14.70;100.00
51496;BME280;37572;52.094;4.870;2022-10-22T04:19:23;100832.63;;;14.76;100.00
51496;BME280;37572;52.094;4.870;2022-10-22T04:21:48;100827.81;;;14.78;100.00
51496;BME280;37572;52.094;4.870;2022-10-22T04:24:13;100833.22;;;14.78;100.00
51496;BME280;37572;52.094;4.870;2022-10-22T04:26:39;100834.88;;;14.79;100.00
51496;BME280;37572;52.094;4.870;2022-10-22T04:29:05;100828.88;;;14.77;100.00
51496;BME280;37572;52.094;4.870;2022-10-22T04:31:31;100833.09;;;14.73;100.00
51496;BME280;37572;52.094;4.870;2022-10-22T04:33:58;100837.47;;;14.74;100.00
51496;BME280;37572;52.094;4.870;2022-10-22T04:36:24;100836.19;;;14.76;100.00
51496;BME280;37572;52.094;4.870;2022-10-22T04:38:59;100835.09;;;14.77;100.00
51496;BME280;37572;52.094;4.870;2022-10-22T04:41:29;100837.22;;;14.75;100.00
51496;BME280;37572;52.094;4.870;2022-10-22T04:43:55;100837.47;;;14.74;100.00
51496;BME280;37572;52.094;4.870;2022-10-22T04:46:22;100838.41;;;14.79;100.00
51496;BME280;37572;52.094;4.870;2022-10-22T04:48:50;100847.38;;;14.80;100.00
51496;BME280;37572;52.094;4.870;2022-10-22T04:51:18;100849.50;;;14.78;100.00
51496;BME280;37572;52.094;4.870;2022-10-22T04:53:45;100844.56;;;14.75;100.00
51496;BME280;37572;52.094;4.870;2022-10-22T04:58:37;100853.38;;;14.70;100.00
51496;BME280;37572;52.094;4.870;2022-10-22T05:03:40;100858.78;;;14.58;100.00
51496;BME280;37572;52.094;4.870;2022-10-22T05:06:06;100858.91;;;14.63;100.00
51496;BME280;37572;52.094;4.870;2022-10-22T05:08:32;100853.00;;;14.55;100.00
51496;BME280;37572;52.094;4.870;2022-10-22T05:10:57;100850.88;;;14.45;100.00
51496;BME280;37572;52.094;4.870;2022-10-22T05:13:22;100853.47;;;14.40;100.00
51496;BME280;37572;52.094;4.870;2022-10-22T05:15:48;100858.03;;;14.39;100.00
51496;BME280;37572;52.094;4.870;2022-10-22T05:18:13;100864.41;;;14.45;100.00
51496;BME280;37572;52.094;4.870;2022-10-22T05:20:39;100860.97;;;14.38;100.00
51496;BME280;37572;52.094;4.870;2022-10-22T05:23:05;100869.94;;;14.38;100.00
51496;BME280;37572;52.094;4.870;2022-10-22T05:25:31;100865.94;;;14.29;100.00
51496;BME280;37572;52.094;4.870;2022-10-22T05:27:56;100867.47;;;14.37;100.00
51496;BME280;37572;52.094;4.870;2022-10-22T05:30:21;100865.81;;;14.36;100.00
51496;BME280;37572;52.094;4.870;2022-10-22T05:32:47;100870.88;;;14.32;100.00
51496;BME280;37572;52.094;4.870;2022-10-22T05:35:12;100863.47;;;14.27;100.00
51496;BME280;37572;52.094;4.870;2022-10-22T05:37:37;100869.47;;;14.30;100.00
51496;BME280;37572;52.094;4.870;2022-10-22T05:40:04;100876.53;;;14.31;100.00
51496;BME280;37572;52.094;4.870;2022-10-22T05:42:32;100875.09;;;14.28;100.00
51496;BME280;37572;52.094;4.870;2022-10-22T05:44:57;100881.00;;;14.25;100.00
51496;BME280;37572;52.094;4.870;2022-10-22T05:47:23;100891.00;;;14.24;100.00
51496;BME280;37572;52.094;4.870;2022-10-22T05:49:48;100888.84;;;14.15;100.00
51496;BME280;37572;52.094;4.870;2022-10-22T05:52:14;100895.69;;;14.17;100.00
51496;BME280;37572;52.094;4.870;2022-10-22T05:54:39;100893.56;;;14.19;100.00
51496;BME280;37572;52.094;4.870;2022-10-22T05:57:04;100895.69;;;14.17;100.00
51496;BME280;37572;52.094;4.870;2022-10-22T05:59:30;100902.38;;;14.15;100.00
51496;BME280;37572;52.094;4.870;2022-10-22T06:01:55;100898.88;;;14.14;100.00
51496;BME280;37572;52.094;4.870;2022-10-22T06:04:20;100907.00;;;14.14;100.00
51496;BME280;37572;52.094;4.870;2022-10-22T06:06:48;100906.53;;;14.17;100.00
51496;BME280;37572;52.094;4.870;2022-10-22T06:09:30;100910.06;;;14.18;100.00
51496;BME280;37572;52.094;4.870;2022-10-22T06:11:56;100896.88;;;14.21;100.00
51496;BME280;37572;52.094;4.870;2022-10-22T06:14:24;100902.19;;;14.28;100.00
51496;BME280;37572;52.094;4.870;2022-10-22T06:16:50;100913.84;;;14.28;100.00
51496;BME280;37572;52.094;4.870;2022-10-22T06:19:18;100918.22;;;14.30;100.00
51496;BME280;37572;52.094;4.870;2022-10-22T06:21:43;100911.28;;;14.34;100.00
51496;BME280;37572;52.094;4.870;2022-10-22T06:24:10;100920.81;;;14.36;100.00
51496;BME280;37572;52.094;4.870;2022-10-22T06:26:35;100924.38;;;14.37;100.00
51496;BME280;37572;52.094;4.870;2022-10-22T06:29:00;100925.06;;;14.44;100.00
51496;BME280;37572;52.094;4.870;2022-10-22T06:31:28;100926.84;;;14.38;100.00
51496;BME280;37572;52.094;4.870;2022-10-22T06:33:54;100926.84;;;14.38;100.00
51496;BME280;37572;52.094;4.870;2022-10-22T06:36:22;100930.25;;;14.34;100.00
51496;BME280;37572;52.094;4.870;2022-10-22T06:38:51;100936.13;;;14.42;100.00
51496;BME280;37572;52.094;4.870;2022-10-22T06:41:16;100939.22;;;14.46;100.00
51496;BME280;37572;52.094;4.870;2022-10-22T06:43:43;100943.84;;;14.57;100.00
51496;BME280;37572;52.094;4.870;2022-10-22T06:46:09;100946.94;;;14.61;100.00
51496;BME280;37572;52.094;4.870;2022-10-22T06:48:35;100953.38;;;14.60;100.00
51496;BME280;37572;52.094;4.870;2022-10-22T06:51:04;100950.91;;;14.58;100.00
51496;BME280;37572;52.094;4.870;2022-10-22T06:53:30;100960.03;;;14.64;100.00
51496;BME280;37572;52.094;4.870;2022-10-22T06:55:56;100957.22;;;14.71;100.00
51496;BME280;37572;52.094;4.870;2022-10-22T06:58:21;100964.88;;;14.74;100.00
51496;BME280;37572;52.094;4.870;2022-10-22T07:00:47;100965.44;;;14.76;100.00
51496;BME280;37572;52.094;4.870;2022-10-22T07:03:12;100964.16;;;14.78;100.00
51496;BME280;37572;52.094;4.870;2022-10-22T07:05:38;100967.00;;;14.84;100.00
51496;BME280;37572;52.094;4.870;2022-10-22T07:08:04;100970.44;;;14.91;100.00
51496;BME280;37572;52.094;4.870;2022-10-22T07:10:29;100977.50;;;14.92;100.00
51496;BME280;37572;52.094;4.870;2022-10-22T07:12:55;100982.81;;;14.98;100.00
51496;BME280;37572;52.094;4.870;2022-10-22T07:15:20;100982.09;;;14.91;100.00
51496;BME280;37572;52.094;4.870;2022-10-22T07:17:45;100987.75;;;15.02;100.00
51496;BME280;37572;52.094;4.870;2022-10-22T07:20:11;100995.53;;;15.10;100.00
51496;BME280;37572;52.094;4.870;2022-10-22T07:22:36;101000.50;;;15.13;100.00
51496;BME280;37572;52.094;4.870;2022-10-22T07:25:03;101000.03;;;15.04;100.00
51496;BME280;37572;52.094;4.870;2022-10-22T07:27:28;101010.50;;;15.01;100.00
51496;BME280;37572;52.094;4.870;2022-10-22T07:29:54;101012.41;;;15.12;100.00
51496;BME280;37572;52.094;4.870;2022-10-22T07:32:19;101012.19;;;15.13;100.00
51496;BME280;37572;52.094;4.870;2022-10-22T07:34:45;101003.19;;;15.13;100.00
51496;BME280;37572;52.094;4.870;2022-10-22T07:37:10;101010.88;;;15.28;99.61
51496;BME280;37572;52.094;4.870;2022-10-22T07:39:35;101019.38;;;15.31;99.73
51496;BME280;37572;52.094;4.870;2022-10-22T07:42:01;101020.91;;;15.39;99.42
51496;BME280;37572;52.094;4.870;2022-10-22T07:44:26;101027.75;;;15.30;99.72
51496;BME280;37572;52.094;4.870;2022-10-22T07:46:51;101027.75;;;15.42;99.15
51496;BME280;37572;52.094;4.870;2022-10-22T07:49:16;101026.22;;;15.46;99.21
51496;BME280;37572;52.094;4.870;2022-10-22T07:51:42;101028.34;;;15.44;98.99
51496;BME280;37572;52.094;4.870;2022-10-22T07:54:07;101038.25;;;15.50;98.69
51496;BME280;37572;52.094;4.870;2022-10-22T07:56:32;101025.59;;;15.56;98.41
51496;BME280;37572;52.094;4.870;2022-10-22T07:58:58;101042.69;;;15.68;98.21
51496;BME280;37572;52.094;4.870;2022-10-22T08:01:23;101045.19;;;15.69;98.55
51496;BME280;37572;52.094;4.870;2022-10-22T08:03:48;101044.22;;;15.76;97.97
51496;BME280;37572;52.094;4.870;2022-10-22T08:06:14;101048.38;;;15.78;97.86
51496;BME280;37572;52.094;4.870;2022-10-22T08:08:40;101052.38;;;15.87;97.50
51496;BME280;37572;52.094;4.870;2022-10-22T08:11:06;101061.72;;;15.92;96.94
51496;BME280;37572;52.094;4.870;2022-10-22T08:13:31;101063.00;;;15.89;96.25
51496;BME280;37572;52.094;4.870;2022-10-22T08:15:59;101058.63;;;16.00;96.35
51496;BME280;37572;52.094;4.870;2022-10-22T08:18:25;101071.69;;;16.15;96.20
51496;BME280;37572;52.094;4.870;2022-10-22T08:20:51;101072.03;;;16.18;95.60
51496;BME280;37572;52.094;4.870;2022-10-22T08:23:17;101075.28;;;16.32;95.12
51496;BME280;37572;52.094;4.870;2022-10-22T08:25:42;101079.34;;;16.30;95.07
51496;BME280;37572;52.094;4.870;2022-10-22T08:28:07;101083.13;;;16.29;95.29
51496;BME280;37572;52.094;4.870;2022-10-22T08:30:33;101081.13;;;16.24;95.41
51496;BME280;37572;52.094;4.870;2022-10-22T08:32:59;101086.88;;;16.28;95.38
51496;BME280;37572;52.094;4.870;2022-10-22T08:35:25;101092.69;;;16.31;95.49
51496;BME280;37572;52.094;4.870;2022-10-22T08:37:50;101090.53;;;16.33;95.05
51496;BME280;37572;52.094;4.870;2022-10-22T08:40:25;101094.19;;;16.39;95.07
51496;BME280;37572;52.094;4.870;2022-10-22T08:45:52;101103.81;;;16.58;94.94
51496;BME280;37572;52.094;4.870;2022-10-22T08:48:43;101100.16;;;16.53;94.08
51496;BME280;37572;52.094;4.870;2022-10-22T08:51:14;101114.09;;;16.56;93.92
51496;BME280;37572;52.094;4.870;2022-10-22T08:56:37;101115.56;;;16.76;93.86
51496;BME280;37572;52.094;4.870;2022-10-22T08:59:10;101111.13;;;16.58;94.34
51496;BME280;37572;52.094;4.870;2022-10-22T09:01:44;101122.13;;;16.63;94.30
51496;BME280;37572;52.094;4.870;2022-10-22T09:04:35;101131.44;;;16.96;93.43
51496;BME280;37572;52.094;4.870;2022-10-22T09:07:03;101137.59;;;17.54;90.63
51496;BME280;37572;52.094;4.870;2022-10-22T09:09:32;101146.47;;;17.83;88.69
51496;BME280;37572;52.094;4.870;2022-10-22T09:12:00;101145.16;;;17.86;87.83
51496;BME280;37572;52.094;4.870;2022-10-22T09:14:26;101140.72;;;17.63;87.75
51496;BME280;37572;52.094;4.870;2022-10-22T09:17:12;101159.78;;;17.46;87.83
51496;BME280;37572;52.094;4.870;2022-10-22T09:27:35;101159.06;;;18.07;86.43
51496;BME280;37572;52.094;4.870;2022-10-22T09:30:01;101164.38;;;18.13;86.06
51496;BME280;37572;52.094;4.870;2022-10-22T09:32:27;101160.09;;;18.00;86.04
51496;BME280;37572;52.094;4.870;2022-10-22T09:34:55;101168.13;;;17.90;86.39
51496;BME280;37572;52.094;4.870;2022-10-22T09:37:25;101171.81;;;18.01;86.80
51496;BME280;37572;52.094;4.870;2022-10-22T09:39:51;101172.84;;;18.17;85.84
51496;BME280;37572;52.094;4.870;2022-10-22T09:42:19;101188.66;;;18.15;85.41
51496;BME280;37572;52.094;4.870;2022-10-22T09:44:53;101182.69;;;18.18;84.57
51496;BME280;37572;52.094;4.870;2022-10-22T09:47:34;101182.59;;;18.13;84.62
51496;BME280;37572;52.094;4.870;2022-10-22T09:53:12;101183.94;;;18.10;84.70
51496;BME280;37572;52.094;4.870;2022-10-22T09:55:39;101186.97;;;18.14;85.00
51496;BME280;37572;52.094;4.870;2022-10-22T09:58:10;101192.50;;;18.19;84.68
51496;BME280;37572;52.094;4.870;2022-10-22T10:00:38;101197.31;;;18.12;84.28
51496;BME280;37572;52.094;4.870;2022-10-22T10:03:04;101205.91;;;18.04;84.20
51496;BME280;37572;52.094;4.870;2022-10-22T10:05:32;101204.78;;;17.99;84.20
51496;BME280;37572;52.094;4.870;2022-10-22T10:08:02;101216.56;;;18.05;85.42
51496;BME280;37572;52.094;4.870;2022-10-22T10:10:48;101221.34;;;18.15;84.87
51496;BME280;37572;52.094;4.870;2022-10-22T10:13:45;101224.13;;;18.20;84.42
51496;BME280;37572;52.094;4.870;2022-10-22T10:22:40;101228.47;;;18.38;82.75
51496;BME280;37572;52.094;4.870;2022-10-22T10:25:31;101232.53;;;18.35;82.33
51496;BME280;37572;52.094;4.870;2022-10-22T10:30:55;101235.50;;;18.34;82.43
51496;BME280;37572;52.094;4.870;2022-10-22T10:33:33;101239.19;;;18.45;82.64
51496;BME280;37572;52.094;4.870;2022-10-22T10:36:10;101244.66;;;18.45;82.15
51496;BME280;37572;52.094;4.870;2022-10-22T10:49:04;101264.66;;;20.04;75.72
51496;BME280;37572;52.094;4.870;2022-10-22T10:54:28;101257.81;;;19.74;74.21
51496;BME280;37572;52.094;4.870;2022-10-22T11:05:02;101268.72;;;19.69;73.55
51496;BME280;37572;52.094;4.870;2022-10-22T11:07:37;101283.63;;;20.21;73.23
51496;BME280;37572;52.094;4.870;2022-10-22T11:10:24;101278.88;;;20.48;69.83
51496;BME280;37572;52.094;4.870;2022-10-22T11:12:56;101281.19;;;20.67;70.30
51496;BME280;37572;52.094;4.870;2022-10-22T11:15:28;101297.34;;;20.69;68.94
51496;BME280;37572;52.094;4.870;2022-10-22T11:20:52;101282.41;;;20.44;67.29
51496;BME280;37572;52.094;4.870;2022-10-22T11:23:47;101287.59;;;20.40;67.97
51496;BME280;37572;52.094;4.870;2022-10-22T11:26:29;101281.34;;;20.50;68.76
51496;BME280;37572;52.094;4.870;2022-10-22T11:28:58;101293.41;;;20.49;67.86
51496;BME280;37572;52.094;4.870;2022-10-22T11:31:26;101285.59;;;20.30;67.59
51496;BME280;37572;52.094;4.870;2022-10-22T11:34:12;101287.34;;;20.47;68.43
51496;BME280;37572;52.094;4.870;2022-10-22T11:36:40;101288.06;;;20.70;67.84
51496;BME280;37572;52.094;4.870;2022-10-22T11:39:28;101289.88;;;20.59;64.62
51496;BME280;37572;52.094;4.870;2022-10-22T11:41:54;101291.59;;;20.27;65.23
51496;BME280;37572;52.094;4.870;2022-10-22T11:44:22;101291.47;;;20.07;66.39
51496;BME280;37572;52.094;4.870;2022-10-22T11:47:08;101284.19;;;19.85;66.29
51496;BME280;37572;52.094;4.870;2022-10-22T11:49:45;101293.69;;;19.77;67.51
51496;BME280;37572;52.094;4.870;2022-10-22T11:52:40;101299.81;;;19.90;67.21
51496;BME280;37572;52.094;4.870;2022-10-22T12:16:35;101322.50;;;26.89;45.06
51496;BME280;37572;52.094;4.870;2022-10-22T12:19:12;101324.31;;;29.06;41.15
51496;BME280;37572;52.094;4.870;2022-10-22T12:21:39;101330.88;;;29.19;38.38
51496;BME280;37572;52.094;4.870;2022-10-22T12:24:05;101325.44;;;30.28;37.45
51496;BME280;37572;52.094;4.870;2022-10-22T12:26:32;101328.19;;;29.80;34.59
51496;BME280;37572;52.094;4.870;2022-10-22T12:29:05;101324.56;;;31.13;34.71
51496;BME280;37572;52.094;4.870;2022-10-22T12:31:35;101327.72;;;31.33;32.95
51496;BME280;37572;52.094;4.870;2022-10-22T12:34:01;101327.16;;;29.76;36.27
51496;BME280;37572;52.094;4.870;2022-10-22T12:36:28;101327.75;;;30.17;34.96
51496;BME280;37572;52.094;4.870;2022-10-22T12:38:54;101319.00;;;30.53;33.44
51496;BME280;37572;52.094;4.870;2022-10-22T12:41:21;101318.03;;;28.74;35.82
51496;BME280;37572;52.094;4.870;2022-10-22T12:43:46;101307.97;;;26.09;40.90
51496;BME280;37572;52.094;4.870;2022-10-22T12:46:13;101314.78;;;26.58;41.78
51496;BME280;37572;52.094;4.870;2022-10-22T12:48:42;101314.63;;;28.06;38.79
51496;BME280;37572;52.094;4.870;2022-10-22T12:51:13;101309.94;;;27.70;38.16
51496;BME280;37572;52.094;4.870;2022-10-22T12:53:48;101312.31;;;26.29;40.54
51496;BME280;37572;52.094;4.870;2022-10-22T12:56:22;101302.75;;;24.45;43.53
51496;BME280;37572;52.094;4.870;2022-10-22T12:58:56;101305.69;;;23.15;47.20
51496;BME280;37572;52.094;4.870;2022-10-22T13:01:24;101294.13;;;22.07;50.33
51496;BME280;37572;52.094;4.870;2022-10-22T13:04:04;101295.13;;;21.29;53.39
51496;BME280;37572;52.094;4.870;2022-10-22T13:06:33;101294.59;;;21.32;55.52
51496;BME280;37572;52.094;4.870;2022-10-22T13:11:40;101289.38;;;21.35;56.48
51496;BME280;37572;52.094;4.870;2022-10-22T13:14:30;101294.00;;;21.19;57.67
51496;BME280;37572;52.094;4.870;2022-10-22T13:17:14;101292.72;;;20.74;59.48
51496;BME280;37572;52.094;4.870;2022-10-22T13:20:00;101293.44;;;20.59;61.02
51496;BME280;37572;52.094;4.870;2022-10-22T13:22:37;101280.53;;;20.44;60.98
51496;BME280;37572;52.094;4.870;2022-10-22T13:27:49;101286.56;;;20.52;60.64
51496;BME280;37572;52.094;4.870;2022-10-22T13:30:30;101296.09;;;20.44;60.95
51496;BME280;37572;52.094;4.870;2022-10-22T13:33:05;101302.63;;;20.38;60.07
51496;BME280;37572;52.094;4.870;2022-10-22T13:35:33;101295.50;;;20.37;60.08
51496;BME280;37572;52.094;4.870;2022-10-22T13:38:00;101285.41;;;20.37;60.17
51496;BME280;37572;52.094;4.870;2022-10-22T13:40:26;101291.13;;;20.36;60.82
51496;BME280;37572;52.094;4.870;2022-10-22T13:42:51;101290.34;;;20.45;61.11
51496;BME280;37572;52.094;4.870;2022-10-22T13:45:17;101294.47;;;20.43;60.14
51496;BME280;37572;52.094;4.870;2022-10-22T13:47:51;101303.31;;;20.60;60.08
51496;BME280;37572;52.094;4.870;2022-10-22T13:50:18;101305.50;;;20.63;58.71
51496;BME280;37572;52.094;4.870;2022-10-22T13:52:46;101296.66;;;20.46;58.30
51496;BME280;37572;52.094;4.870;2022-10-22T13:55:17;101294.94;;;20.35;57.83
51496;BME280;37572;52.094;4.870;2022-10-22T13:57:44;101298.72;;;20.28;58.56
51496;BME280;37572;52.094;4.870;2022-10-22T14:00:12;101301.06;;;20.09;59.61
51496;BME280;37572;52.094;4.870;2022-10-22T14:02:38;101301.75;;;19.94;60.00
51496;BME280;37572;52.094;4.870;2022-10-22T14:05:04;101301.63;;;19.79;59.52
51496;BME280;37572;52.094;4.870;2022-10-22T14:07:33;101305.78;;;19.59;59.84
51496;BME280;37572;52.094;4.870;2022-10-22T14:09:58;101309.78;;;19.47;60.20
51496;BME280;37572;52.094;4.870;2022-10-22T14:12:24;101306.66;;;19.38;60.53
51496;BME280;37572;52.094;4.870;2022-10-22T14:14:50;101312.91;;;19.33;60.95
51496;BME280;37572;52.094;4.870;2022-10-22T14:17:16;101311.69;;;19.24;61.15
51496;BME280;37572;52.094;4.870;2022-10-22T14:19:43;101318.88;;;19.08;61.74
51496;BME280;37572;52.094;4.870;2022-10-22T14:22:16;101327.78;;;18.98;62.01
51496;BME280;37572;52.094;4.870;2022-10-22T14:24:43;101328.53;;;18.94;62.12
51496;BME280;37572;52.094;4.870;2022-10-22T14:27:13;101323.63;;;18.96;62.14
51496;BME280;37572;52.094;4.870;2022-10-22T14:29:39;101321.34;;;18.87;62.59
51496;BME280;37572;52.094;4.870;2022-10-22T14:32:11;101319.03;;;18.79;62.96
51496;BME280;37572;52.094;4.870;2022-10-22T14:34:36;101327.09;;;18.69;63.54
51496;BME280;37572;52.094;4.870;2022-10-22T14:37:01;101330.31;;;18.66;63.72
51496;BME280;37572;52.094;4.870;2022-10-22T14:39:27;101323.06;;;18.54;64.00
51496;BME280;37572;52.094;4.870;2022-10-22T14:41:52;101322.47;;;18.52;64.75
51496;BME280;37572;52.094;4.870;2022-10-22T14:44:17;101321.16;;;18.55;65.05